createdAt,value
2022-11-17T00:00:24.925Z,94876.97
2022-11-17T00:02:52.947Z,94874.63
2022-11-17T00:05:21.259Z,94875.97
2022-11-17T00:07:50.054Z,94876.66
2022-11-17T00:10:19.208Z,94880.97
2022-11-17T00:13:05.958Z,94892.97
2022-11-17T00:15:34.144Z,94888.97
2022-11-17T00:18:20.899Z,94890.34
2022-11-17T00:21:06.020Z,94893.94
2022-11-17T00:23:48.091Z,94892.16
2022-11-17T00:26:16.941Z,94879.25
2022-11-17T00:28:46.347Z,94878.03
2022-11-17T00:31:32.891Z,94875.00
2022-11-17T00:34:07.687Z,94873.19
2022-11-17T00:36:39.091Z,94874.16
2022-11-17T00:39:07.704Z,94878.31
2022-11-17T00:41:36.007Z,94859.09
2022-11-17T00:44:06.171Z,94851.75
2022-11-17T00:46:34.596Z,94841.66
2022-11-17T00:49:02.650Z,94841.38
2022-11-17T00:51:30.610Z,94833.50
2022-11-17T00:53:58.871Z,94839.13
2022-11-17T00:56:27.051Z,94821.28
2022-11-17T00:58:55.262Z,94819.88
2022-11-17T01:01:25.025Z,94811.56
2022-11-17T01:04:02.968Z,94815.00
2022-11-17T01:06:33.628Z,94801.56
2022-11-17T01:09:01.738Z,94799.63
2022-11-17T01:11:30.178Z,94792.88
2022-11-17T01:14:00.262Z,94796.06
2022-11-17T01:16:30.959Z,94800.03
2022-11-17T01:19:01.220Z,94798.00
2022-11-17T01:21:31.465Z,94787.47
2022-11-17T01:24:01.480Z,94788.81
2022-11-17T01:26:31.759Z,94778.31
2022-11-17T01:29:00.616Z,94776.09
2022-11-17T01:31:32.021Z,94778.72
2022-11-17T01:34:00.315Z,94778.56
2022-11-17T01:36:30.070Z,94770.91
2022-11-17T01:38:58.343Z,94765.22
2022-11-17T01:41:27.964Z,94757.88
2022-11-17T01:43:57.717Z,94753.25
2022-11-17T01:46:33.460Z,94745.91
2022-11-17T01:49:06.693Z,94742.03
2022-11-17T01:51:39.487Z,94734.97
2022-11-17T01:54:08.753Z,94728.88
2022-11-17T01:56:40.478Z,94727.88
2022-11-17T01:59:11.359Z,94709.34
2022-11-17T02:01:55.725Z,94694.25
2022-11-17T02:04:27.058Z,94686.38
2022-11-17T02:07:01.827Z,94684.56
2022-11-17T02:09:30.516Z,94683.44
2022-11-17T02:14:57.159Z,94680.13
2022-11-17T02:17:34.834Z,94672.53
2022-11-17T02:20:09.017Z,94668.94
2022-11-17T02:23:25.486Z,94658.13
2022-11-17T02:26:09.019Z,94661.03
2022-11-17T02:28:40.554Z,94663.00
2022-11-17T02:31:20.738Z,94659.41
2022-11-17T02:33:56.872Z,94643.09
2022-11-17T02:36:33.391Z,94613.72
2022-11-17T02:39:11.163Z,94622.59
2022-11-17T02:41:47.541Z,94640.00
2022-11-17T02:44:21.745Z,94634.75
2022-11-17T02:46:55.734Z,94628.66
2022-11-17T02:49:27.052Z,94624.22
2022-11-17T02:51:57.916Z,94638.06
2022-11-17T02:54:29.303Z,94645.72
2022-11-17T02:56:57.266Z,94647.22
2022-11-17T02:59:31.318Z,94653.31
2022-11-17T03:02:20.575Z,94671.56
2022-11-17T03:05:05.404Z,94676.13
2022-11-17T03:07:48.201Z,94681.38
2022-11-17T03:10:20.752Z,94671.03
2022-11-17T03:12:56.250Z,94655.78
2022-11-17T03:15:33.687Z,94643.09
2022-11-17T03:18:10.699Z,94641.13
2022-11-17T03:20:48.759Z,94635.06
2022-11-17T03:23:20.824Z,94631.16
2022-11-17T03:25:54.894Z,94644.59
2022-11-17T03:28:28.951Z,94645.44
2022-11-17T03:31:00.485Z,94656.09
2022-11-17T03:33:30.166Z,94650.03
2022-11-17T03:36:04.837Z,94656.09
2022-11-17T03:38:36.209Z,94654.16
2022-11-17T03:41:07.748Z,94657.59
2022-11-17T03:43:37.773Z,94642.94
2022-11-17T03:46:11.593Z,94640.31
2022-11-17T03:48:45.834Z,94643.78
2022-11-17T03:51:17.622Z,94651.50
2022-11-17T03:53:47.034Z,94634.28
2022-11-17T03:56:26.377Z,94637.81
2022-11-17T03:59:00.315Z,94636.53
2022-11-17T04:01:32.290Z,94626.03
2022-11-17T04:04:00.992Z,94632.59
2022-11-17T04:06:29.037Z,94633.28
2022-11-17T04:08:57.059Z,94625.91
2022-11-17T04:11:42.431Z,94619.50
2022-11-17T04:14:28.228Z,94613.94
2022-11-17T04:16:57.606Z,94615.28
2022-11-17T04:19:25.681Z,94611.38
2022-11-17T04:21:53.710Z,94616.31
2022-11-17T04:24:21.721Z,94610.38
2022-11-17T04:27:07.307Z,94607.28
2022-11-17T04:29:35.320Z,94613.22
2022-11-17T04:32:05.091Z,94604.31
2022-11-17T04:34:33.079Z,94597.91
2022-11-17T04:37:06.954Z,94597.63
2022-11-17T04:39:38.822Z,94600.94
2022-11-17T04:42:05.902Z,94604.53
2022-11-17T04:44:34.005Z,94596.97
2022-11-17T04:47:03.678Z,94608.50
2022-11-17T04:49:33.814Z,94607.50
2022-11-17T04:52:02.698Z,94610.13
2022-11-17T04:54:30.770Z,94604.72
2022-11-17T04:56:58.929Z,94599.47
2022-11-17T04:59:26.990Z,94596.50
2022-11-17T05:01:55.258Z,94593.06
2022-11-17T05:04:37.200Z,94597.50
2022-11-17T05:07:07.022Z,94588.94
2022-11-17T05:09:35.148Z,94592.25
2022-11-17T05:12:20.390Z,94603.91
2022-11-17T05:14:50.356Z,94594.88
2022-11-17T05:17:17.936Z,94612.47
2022-11-17T05:19:47.267Z,94616.75
2022-11-17T05:22:35.751Z,94617.28
2022-11-17T05:25:04.851Z,94625.97
2022-11-17T05:27:33.745Z,94613.50
2022-11-17T05:30:01.960Z,94615.13
2022-11-17T05:32:30.051Z,94618.75
2022-11-17T05:34:58.056Z,94625.66
2022-11-17T05:37:27.475Z,94616.63
2022-11-17T05:39:55.498Z,94612.50
2022-11-17T05:42:23.563Z,94610.69
2022-11-17T05:44:51.553Z,94608.72
2022-11-17T05:47:19.626Z,94600.16
2022-11-17T05:49:47.532Z,94601.97
2022-11-17T05:52:15.575Z,94611.81
2022-11-17T05:54:44.916Z,94622.69
2022-11-17T05:57:16.308Z,94602.44
2022-11-17T05:59:47.666Z,94613.50
2022-11-17T06:02:20.048Z,94620.91
2022-11-17T06:04:50.494Z,94615.81
2022-11-17T06:07:20.695Z,94612.03
2022-11-17T06:09:52.194Z,94618.78
2022-11-17T06:12:20.308Z,94617.16
2022-11-17T06:14:48.326Z,94609.06
2022-11-17T06:17:22.876Z,94609.91
2022-11-17T06:19:56.455Z,94612.38
2022-11-17T06:22:26.478Z,94614.72
2022-11-17T06:24:56.825Z,94612.22
2022-11-17T06:27:25.845Z,94614.19
2022-11-17T06:29:54.998Z,94608.78
2022-11-17T06:32:22.954Z,94608.91
2022-11-17T06:34:55.696Z,94608.09
2022-11-17T06:37:24.881Z,94612.56
2022-11-17T06:39:52.939Z,94616.47
2022-11-17T06:42:42.917Z,94630.44
2022-11-17T06:45:12.268Z,94627.00
2022-11-17T06:47:40.306Z,94622.41
2022-11-17T06:50:08.888Z,94602.03
2022-11-17T06:52:36.864Z,94606.97
2022-11-17T06:55:05.067Z,94622.91
2022-11-17T06:57:34.387Z,94624.38
2022-11-17T07:00:02.318Z,94614.84
2022-11-17T07:02:32.464Z,94599.88
2022-11-17T07:05:00.531Z,94607.31
2022-11-17T07:07:28.711Z,94616.34
2022-11-17T07:09:56.743Z,94622.75
2022-11-17T07:12:24.757Z,94621.75
2022-11-17T07:14:54.209Z,94619.78
2022-11-17T07:17:22.202Z,94620.00
2022-11-17T07:19:50.199Z,94617.88
2022-11-17T07:22:18.178Z,94620.19
2022-11-17T07:24:46.182Z,94618.72
2022-11-17T07:27:14.619Z,94622.81
2022-11-17T07:29:42.675Z,94629.66
2022-11-17T07:32:14.941Z,94616.16
2022-11-17T07:34:43.032Z,94615.00
2022-11-17T07:37:11.036Z,94613.19
2022-11-17T07:39:38.943Z,94617.31
2022-11-17T07:42:07.315Z,94618.63
2022-11-17T07:44:35.597Z,94624.41
2022-11-17T07:47:03.595Z,94612.75
2022-11-17T07:49:32.977Z,94606.66
2022-11-17T07:52:01.923Z,94610.78
2022-11-17T07:54:29.870Z,94602.38
2022-11-17T07:56:57.835Z,94605.50
2022-11-17T07:59:25.848Z,94615.75
2022-11-17T08:01:53.838Z,94615.56
2022-11-17T08:04:21.864Z,94614.25
2022-11-17T08:06:51.254Z,94628.09
2022-11-17T08:09:19.275Z,94633.03
2022-11-17T08:11:47.239Z,94638.97
2022-11-17T08:14:15.211Z,94636.66
2022-11-17T08:16:43.209Z,94640.78
2022-11-17T08:19:12.038Z,94643.94
2022-11-17T08:21:41.148Z,94646.25
2022-11-17T08:24:12.833Z,94642.44
2022-11-17T08:26:41.152Z,94637.69
2022-11-17T08:29:09.655Z,94646.25
2022-11-17T08:31:37.665Z,94635.22
2022-11-17T08:34:05.778Z,94632.41
2022-11-17T08:36:33.832Z,94638.53
2022-11-17T08:39:01.913Z,94644.63
2022-11-17T08:41:32.137Z,94647.25
2022-11-17T08:44:00.500Z,94647.72
2022-11-17T08:46:28.505Z,94662.41
2022-11-17T08:48:57.205Z,94651.03
2022-11-17T08:51:27.284Z,94666.56
2022-11-17T08:53:55.361Z,94655.81
2022-11-17T08:56:23.339Z,94655.66
2022-11-17T08:58:52.794Z,94651.88
2022-11-17T09:01:20.819Z,94665.53
2022-11-17T09:03:49.239Z,94683.69
2022-11-17T09:06:18.308Z,94677.06
2022-11-17T09:08:47.445Z,94671.28
2022-11-17T09:11:16.755Z,94671.97
2022-11-17T09:13:45.909Z,94672.28
2022-11-17T09:16:16.049Z,94671.16
2022-11-17T09:18:44.471Z,94679.53
2022-11-17T09:21:15.279Z,94683.31
2022-11-17T09:23:44.008Z,94688.97
2022-11-17T09:26:14.549Z,94685.97
2022-11-17T09:28:42.994Z,94697.00
2022-11-17T09:31:12.962Z,94684.97
2022-11-17T09:33:42.802Z,94698.50
2022-11-17T09:36:11.523Z,94690.22
2022-11-17T09:38:40.242Z,94701.94
2022-11-17T09:41:22.280Z,94695.00
2022-11-17T09:43:55.437Z,94689.53
2022-11-17T09:46:28.799Z,94697.97
2022-11-17T09:49:07.890Z,94688.88
2022-11-17T09:51:39.373Z,94693.19
2022-11-17T09:54:14.495Z,94700.91
2022-11-17T09:56:42.582Z,94714.94
2022-11-17T09:59:15.318Z,94716.75
2022-11-17T10:01:43.466Z,94714.94
2022-11-17T10:04:16.811Z,94718.22
2022-11-17T10:06:47.905Z,94715.28
2022-11-17T10:09:25.655Z,94717.44
2022-11-17T10:11:55.795Z,94717.25
2022-11-17T10:14:24.072Z,94714.09
2022-11-17T10:16:54.374Z,94714.91
2022-11-17T10:19:26.148Z,94721.03
2022-11-17T10:21:57.947Z,94727.63
2022-11-17T10:24:37.473Z,94719.69
2022-11-17T10:27:07.569Z,94713.91
2022-11-17T10:29:35.496Z,94712.28
2022-11-17T10:32:09.814Z,94714.56
2022-11-17T10:34:41.696Z,94722.50
2022-11-17T10:37:26.505Z,94718.19
2022-11-17T10:40:19.245Z,94730.41
2022-11-17T10:43:03.623Z,94727.56
2022-11-17T10:45:32.488Z,94731.06
2022-11-17T10:48:17.874Z,94727.88
2022-11-17T10:50:55.192Z,94711.41
2022-11-17T10:53:41.264Z,94707.78
2022-11-17T10:56:15.748Z,94704.50
2022-11-17T10:59:00.698Z,94698.34
2022-11-17T11:01:35.166Z,94706.78
2022-11-17T11:04:04.484Z,94696.56
2022-11-17T11:06:35.865Z,94708.94
2022-11-17T11:09:08.216Z,94700.19
2022-11-17T11:11:44.538Z,94707.59
2022-11-17T11:14:20.874Z,94710.91
2022-11-17T11:16:51.420Z,94704.66
2022-11-17T11:19:21.134Z,94705.81
2022-11-17T11:22:21.427Z,94701.00
2022-11-17T11:24:54.592Z,94705.63
2022-11-17T11:27:38.589Z,94703.97
2022-11-17T11:30:11.337Z,94703.50
2022-11-17T11:32:52.001Z,94716.84
2022-11-17T11:35:34.860Z,94713.09
2022-11-17T11:38:16.916Z,94703.69
2022-11-17T11:40:55.875Z,94711.25
2022-11-17T11:43:35.241Z,94701.56
2022-11-17T11:46:11.528Z,94701.91
2022-11-17T11:48:41.939Z,94698.41
2022-11-17T11:51:16.341Z,94696.78
2022-11-17T11:53:53.539Z,94707.66
2022-11-17T11:56:27.009Z,94694.44
2022-11-17T11:59:00.052Z,94697.75
2022-11-17T12:01:30.016Z,94706.34
2022-11-17T12:04:13.943Z,94697.41
2022-11-17T12:06:53.975Z,94719.19
2022-11-17T12:09:48.632Z,94709.13
2022-11-17T12:12:19.465Z,94713.91
2022-11-17T12:15:28.861Z,94709.28
2022-11-17T12:18:02.068Z,94722.50
2022-11-17T12:20:58.899Z,94720.16
2022-11-17T12:23:58.878Z,94708.41
2022-11-17T12:26:30.150Z,94705.25
2022-11-17T12:29:29.150Z,94712.88
2022-11-17T12:31:58.094Z,94716.81
2022-11-17T12:34:30.592Z,94711.50
2022-11-17T12:37:27.424Z,94709.53
2022-11-17T12:40:00.604Z,94702.44
2022-11-17T12:42:31.587Z,94691.31
2022-11-17T12:45:01.788Z,94693.97
2022-11-17T12:47:32.118Z,94696.28
2022-11-17T12:50:30.024Z,94698.56
2022-11-17T12:53:17.165Z,94701.38
2022-11-17T12:56:10.038Z,94699.59
2022-11-17T12:58:50.180Z,94697.91
2022-11-17T13:01:26.774Z,94689.00
2022-11-17T13:04:00.397Z,94685.00
2022-11-17T13:06:35.346Z,94682.19
2022-11-17T13:09:07.297Z,94684.47
2022-11-17T13:11:36.113Z,94682.69
2022-11-17T13:14:14.526Z,94683.00
2022-11-17T13:16:48.027Z,94684.69
2022-11-17T13:19:41.614Z,94691.94
2022-11-17T13:22:16.505Z,94702.53
2022-11-17T13:28:45.472Z,94697.59
2022-11-17T13:31:19.316Z,94697.59
2022-11-17T13:33:56.892Z,94700.41
2022-11-17T13:36:27.318Z,94697.91
2022-11-17T13:38:57.365Z,94692.16
2022-11-17T13:41:26.444Z,94685.56
2022-11-17T13:43:56.099Z,94693.66
2022-11-17T13:46:25.496Z,94699.16
2022-11-17T13:48:53.580Z,94706.59
2022-11-17T13:51:35.011Z,94700.31
2022-11-17T13:54:07.374Z,94690.72
2022-11-17T13:56:37.961Z,94691.53
2022-11-17T13:59:18.546Z,94695.19
2022-11-17T14:01:48.031Z,94682.50
2022-11-17T14:04:22.074Z,94677.56
2022-11-17T14:06:59.804Z,94686.47
2022-11-17T14:09:29.645Z,94693.41
2022-11-17T14:11:59.037Z,94702.00
2022-11-17T14:14:35.461Z,94712.59
2022-11-17T14:17:14.161Z,94719.69
2022-11-17T14:19:42.187Z,94704.00
2022-11-17T14:22:30.821Z,94703.19
2022-11-17T14:24:59.805Z,94706.16
2022-11-17T14:27:39.086Z,94702.22
2022-11-17T14:30:08.112Z,94699.72
2022-11-17T14:32:37.450Z,94706.03
2022-11-17T14:35:05.899Z,94696.28
2022-11-17T14:37:34.120Z,94697.44
2022-11-17T14:40:05.222Z,94700.44
2022-11-17T14:42:36.072Z,94696.13
2022-11-17T14:45:05.185Z,94698.09
2022-11-17T14:47:33.148Z,94698.28
2022-11-17T14:50:03.303Z,94694.00
2022-11-17T14:52:31.279Z,94687.88
2022-11-17T14:55:00.716Z,94687.06
2022-11-17T14:57:28.690Z,94688.88
2022-11-17T14:59:56.918Z,94691.81
2022-11-17T15:02:24.972Z,94688.19
2022-11-17T15:04:53.665Z,94693.50
2022-11-17T15:07:23.493Z,94689.84
2022-11-17T15:09:51.540Z,94696.13
2022-11-17T15:12:19.678Z,94696.78
2022-11-17T15:14:48.428Z,94691.00
2022-11-17T15:17:16.879Z,94696.28
2022-11-17T15:19:45.294Z,94690.19
2022-11-17T15:22:13.272Z,94687.53
2022-11-17T15:24:42.633Z,94679.13
2022-11-17T15:27:11.048Z,94681.59
2022-11-17T15:29:39.220Z,94673.38
2022-11-17T15:32:07.737Z,94674.19
2022-11-17T15:34:35.901Z,94678.97
2022-11-17T15:37:03.908Z,94676.53
2022-11-17T15:39:31.978Z,94675.69
2022-11-17T15:42:01.352Z,94677.50
2022-11-17T15:44:30.196Z,94673.69
2022-11-17T15:46:58.205Z,94675.69
2022-11-17T15:49:26.265Z,94661.50
2022-11-17T15:51:54.492Z,94665.94
2022-11-17T15:54:23.433Z,94666.31
2022-11-17T15:56:52.208Z,94660.84
2022-11-17T15:59:21.603Z,94657.53
2022-11-17T16:01:50.211Z,94651.09
2022-11-17T16:04:18.239Z,94647.16
2022-11-17T16:06:47.387Z,94655.91
2022-11-17T16:09:16.140Z,94659.84
2022-11-17T16:11:44.771Z,94652.63
2022-11-17T16:14:14.789Z,94653.59
2022-11-17T16:16:46.762Z,94649.34
2022-11-17T16:19:15.115Z,94658.06
2022-11-17T16:21:44.587Z,94665.69
2022-11-17T16:24:13.103Z,94665.69
2022-11-17T16:26:41.240Z,94669.97
2022-11-17T16:29:09.318Z,94659.56
2022-11-17T16:31:39.779Z,94664.34
2022-11-17T16:34:12.919Z,94663.38
2022-11-17T16:36:42.273Z,94660.75
2022-11-17T16:39:12.820Z,94662.22
2022-11-17T16:41:42.778Z,94665.34
2022-11-17T16:44:12.973Z,94669.16
2022-11-17T16:46:43.410Z,94684.66
2022-11-17T16:49:16.461Z,94678.38
2022-11-17T16:51:48.809Z,94676.91
2022-11-17T16:54:16.906Z,94676.59
2022-11-17T16:56:45.053Z,94681.88
2022-11-17T16:59:13.348Z,94685.16
2022-11-17T17:01:41.866Z,94685.47
2022-11-17T17:04:12.096Z,94681.06
2022-11-17T17:06:43.675Z,94682.69
2022-11-17T17:09:14.775Z,94675.44
2022-11-17T17:11:43.396Z,94677.41
2022-11-17T17:14:14.570Z,94678.09
2022-11-17T17:16:43.642Z,94668.34
2022-11-17T17:19:13.360Z,94685.34
2022-11-17T17:21:44.381Z,94692.91
2022-11-17T17:24:13.628Z,94706.78
2022-11-17T17:26:42.354Z,94706.59
2022-11-17T17:29:12.076Z,94709.75
2022-11-17T17:31:41.910Z,94711.38
2022-11-17T17:34:12.816Z,94720.81
2022-11-17T17:36:42.138Z,94718.97
2022-11-17T17:39:14.636Z,94712.03
2022-11-17T17:41:44.187Z,94721.44
2022-11-17T17:44:16.189Z,94721.13
2022-11-17T17:46:44.468Z,94714.19
2022-11-17T17:49:12.876Z,94719.66
2022-11-17T17:51:44.300Z,94703.31
2022-11-17T17:54:16.992Z,94701.66
2022-11-17T17:56:45.339Z,94697.84
2022-11-17T17:59:14.489Z,94707.44
2022-11-17T18:01:45.997Z,94711.88
2022-11-17T18:04:16.174Z,94716.31
2022-11-17T18:06:48.245Z,94714.69
2022-11-17T18:09:19.428Z,94715.50
2022-11-17T18:11:49.488Z,94718.66
2022-11-17T18:14:22.509Z,94715.50
2022-11-17T18:16:51.150Z,94712.72
2022-11-17T18:19:19.844Z,94720.28
2022-11-17T18:21:49.294Z,94709.72
2022-11-17T18:24:17.346Z,94703.78
2022-11-17T18:26:45.313Z,94709.41
2022-11-17T18:29:16.248Z,94703.47
2022-11-17T18:31:46.662Z,94695.69
2022-11-17T18:34:16.578Z,94710.41
2022-11-17T18:36:44.572Z,94711.56
2022-11-17T18:39:15.268Z,94714.53
2022-11-17T18:41:44.128Z,94715.00
2022-11-17T18:44:13.402Z,94722.41
2022-11-17T18:46:41.457Z,94731.00
2022-11-17T18:49:09.905Z,94733.50
2022-11-17T18:51:38.350Z,94736.13
2022-11-17T18:54:07.618Z,94744.88
2022-11-17T18:56:38.389Z,94743.22
2022-11-17T18:59:11.563Z,94747.34
2022-11-17T19:01:40.850Z,94761.22
2022-11-17T19:04:09.079Z,94765.50
2022-11-17T19:06:37.526Z,94766.16
2022-11-17T19:09:06.078Z,94771.44
2022-11-17T19:11:35.065Z,94782.81
2022-11-17T19:14:05.870Z,94784.47
2022-11-17T19:16:41.005Z,94785.28
2022-11-17T19:19:13.156Z,94801.13
2022-11-17T19:21:41.718Z,94789.25
2022-11-17T19:24:10.161Z,94786.94
2022-11-17T19:26:38.210Z,94790.41
2022-11-17T19:29:15.584Z,94800.28
2022-11-17T19:31:45.238Z,94809.69
2022-11-17T19:34:13.496Z,94816.25
2022-11-17T19:36:41.491Z,94810.47
2022-11-17T19:39:09.516Z,94827.13
2022-11-17T19:41:38.587Z,94832.66
2022-11-17T19:44:09.921Z,94841.06
2022-11-17T19:46:38.926Z,94840.19
2022-11-17T19:49:07.644Z,94842.75
2022-11-17T19:51:37.499Z,94840.44
2022-11-17T19:54:07.308Z,94839.47
2022-11-17T19:56:35.678Z,94838.13
2022-11-17T19:59:04.041Z,94836.66
2022-11-17T20:01:34.442Z,94828.00
2022-11-17T20:04:03.494Z,94830.44
2022-11-17T20:06:36.980Z,94819.75
2022-11-17T20:09:08.121Z,94812.16
2022-11-17T20:11:36.928Z,94808.03
2022-11-17T20:14:05.339Z,94821.50
2022-11-17T20:16:34.799Z,94814.75
2022-11-17T20:19:03.285Z,94830.19
2022-11-17T20:21:31.876Z,94829.38
2022-11-17T20:24:01.193Z,94831.81
2022-11-17T20:26:31.446Z,94828.34
2022-11-17T20:29:00.297Z,94829.50
2022-11-17T20:31:29.975Z,94833.41
2022-11-17T20:34:01.424Z,94839.50
2022-11-17T20:36:30.887Z,94832.69
2022-11-17T20:39:01.317Z,94833.97
2022-11-17T20:41:30.288Z,94842.56
2022-11-17T20:44:00.429Z,94847.16
2022-11-17T20:46:28.856Z,94844.50
2022-11-17T20:48:57.029Z,94848.47
2022-11-17T20:51:27.056Z,94858.31
2022-11-17T20:53:55.229Z,94856.13
2022-11-17T20:56:23.651Z,94854.19
2022-11-17T20:58:51.742Z,94854.19
2022-11-17T21:01:23.042Z,94856.97
2022-11-17T21:03:51.267Z,94859.59
2022-11-17T21:06:22.955Z,94862.38
2022-11-17T21:08:52.694Z,94859.59
2022-11-17T21:11:40.933Z,94857.09
2022-11-17T21:14:10.223Z,94857.41
2022-11-17T21:16:39.664Z,94871.25
2022-11-17T21:19:08.072Z,94874.72
2022-11-17T21:21:36.535Z,94878.66
2022-11-17T21:24:06.570Z,94886.69
2022-11-17T21:26:34.944Z,94891.81
2022-11-17T21:29:06.401Z,94895.28
2022-11-17T21:31:35.284Z,94904.13
2022-11-17T21:34:05.279Z,94912.25
2022-11-17T21:36:34.517Z,94915.72
2022-11-17T21:39:02.685Z,94918.50
2022-11-17T21:41:35.385Z,94907.97
2022-11-17T21:44:05.012Z,94911.19
2022-11-17T21:46:34.724Z,94906.78
2022-11-17T21:49:03.117Z,94911.19
2022-11-17T21:51:33.376Z,94896.84
2022-11-17T21:54:03.475Z,94891.06
2022-11-17T21:56:33.223Z,94889.41
2022-11-17T21:59:02.785Z,94889.53
2022-11-17T22:01:31.681Z,94885.94
2022-11-17T22:04:00.099Z,94874.19
2022-11-17T22:06:28.754Z,94874.38
2022-11-17T22:08:57.883Z,94883.16
2022-11-17T22:11:37.467Z,94880.53
2022-11-17T22:14:09.881Z,94881.81
2022-11-17T22:16:39.125Z,94876.69
2022-11-17T22:19:08.974Z,94874.19
2022-11-17T22:21:37.895Z,94863.53
2022-11-17T22:24:07.208Z,94852.78
2022-11-17T22:26:38.147Z,94852.78
2022-11-17T22:29:09.665Z,94864.06
2022-11-17T22:31:37.834Z,94868.19
2022-11-17T22:34:05.983Z,94867.00
2022-11-17T22:36:33.972Z,94865.88
2022-11-17T22:39:02.028Z,94868.63
2022-11-17T22:41:30.039Z,94859.91
2022-11-17T22:43:58.819Z,94856.63
2022-11-17T22:46:29.627Z,94856.91
2022-11-17T22:48:57.819Z,94860.22
2022-11-17T22:51:43.741Z,94858.03
2022-11-17T22:54:11.795Z,94852.78
2022-11-17T22:56:39.682Z,94856.25
2022-11-17T22:59:08.224Z,94865.09
2022-11-17T23:01:37.600Z,94859.81
2022-11-17T23:04:05.821Z,94867.06
2022-11-17T23:06:33.784Z,94867.72
2022-11-17T23:09:01.887Z,94867.72
2022-11-17T23:11:38.374Z,94866.91
2022-11-17T23:14:07.977Z,94865.41
2022-11-17T23:16:37.817Z,94861.63
2022-11-17T23:19:06.689Z,94860.13
2022-11-17T23:21:34.739Z,94856.53
2022-11-17T23:24:03.560Z,94864.13
2022-11-17T23:26:31.509Z,94867.06
2022-11-17T23:28:59.457Z,94853.91
2022-11-17T23:31:28.259Z,94860.69
2022-11-17T23:33:57.882Z,94857.50
2022-11-17T23:36:26.132Z,94865.53
2022-11-17T23:38:56.689Z,94865.41
2022-11-17T23:41:24.812Z,94863.44
2022-11-17T23:43:54.520Z,94859.19
2022-11-17T23:46:24.615Z,94860.13
2022-11-17T23:48:53.349Z,94855.56
2022-11-17T23:51:25.290Z,94851.94
2022-11-17T23:53:53.981Z,94852.94
2022-11-17T23:56:22.343Z,94852.25
2022-11-17T23:58:50.837Z,94839.91
